Avon, MS

9:46 AM CDT on May 25, 2015 (GMT -0500)
Lake Hall Rd near Fawnwood Comm Ctr | | Change Station
CLOSE
Current Station
Personal Weather Station
Location: Lake Village, AR
Elevation: 118 ft
Nearby Weather Stations

Elev 118 ft 33.28 °N, 91.24 °W | Updated 7 minutes ago

Overcast
Overcast
72.9 °F
Feels Like 72.9 °F
N
3.0
Wind Variable Wind from SSE
Gusts 5.0 mph

Today
High -- | Low -- °F
--% Chance of Precip.
Yesterday
High -- | Low -- °F
Precip. -- in
5:58 AM 8:03 PM
Waxing Crescent, 49% visible
Pressure 30.06 in
Visibility 9.0 miles
Clouds Overcast 1000 ft
Dew Point 71 °F
Humidity 95%
Rainfall 0.02 in
Snow Depth Not available.
UV 2 out of 12
Pollen 2.80 out of 12
Air Quality Not available.
Flu Activity No Activity
SPECI KGLH 251438Z AUTO 21010KT 9SM OVC010 23/22 A3006 RMK AO2 CIG 008V014 T02330217

More Conditions Fewer Conditions

Pressure 30.06 in
Visibility 9.0 miles
Clouds Overcast 1000 ft
Dew Point 71 °F
Humidity 95%
Rainfall 0.02 in
Snow Depth Not available.
UV 2 out of 12
Pollen 2.80 out of 12
Air Quality Not available.
Flu Activity No Activity
SPECI KGLH 251438Z AUTO 21010KT 9SM OVC010 23/22 A3006 RMK AO2 CIG 008V014 T02330217

More Conditions Fewer Conditions

10-Day Weather Forecast

Almanac

Astronomy

May. 25, 2015 Rise Set
Actual Time
Civil Twilight
Nautical Twilight
Astronomical Twilight
Moon
Length of Visible Light
Length of Day
Tomorrow will be .
, % of the Moon is Illuminated

Today's Extremes

State Highs State Lows

Community

WunderPhotos

Upload Photos

1,824,024 photos uploaded!

WunderBlogs® & News

Nearby

Air Quality

  Air Quality AQ Index Pollutant
Not available.

Snow Depth

Station Depth Elevation

Earthquake Activity

City Distance Mag. Time & Date
Minimum magnitude displayed is 2.5.

Coastal Water Temperatures

Place Temperature

Stations

Nearby Weather Stations

Station Location Temp. Windchill Dew Point Humidity Wind Precip. Elev Updated Type